Time;durP1;ratioP1;P1;durP2;ratioP2;P2;SDS_P1;SDS_P2;PMS_P1;PMS_P2;Temp;Humidity;BMP_temperature;BMP_pressure;BME280_temperature;BME280_humidity;BME280_pressure;Samples;Min_cycle;Max_cycle;Signal;HPM_P1;HPM_P2
2021/12/25 00:01:19;;;;;;;46.38;33.85;;;13.70;90.90;;;;;;5093154;28;20055;-63
2021/12/25 00:03:45;;;;;;;44.17;33.05;;;13.70;90.90;;;;;;5091737;28;20039;-60
2021/12/25 00:06:11;;;;;;;45.67;33.38;;;13.60;91.00;;;;;;5092914;28;20533;-60
2021/12/25 00:08:36;;;;;;;45.60;34.63;;;13.60;91.10;;;;;;5093324;28;20036;-63
2021/12/25 00:11:04;;;;;;;45.97;34.90;;;13.60;91.10;;;;;;5093037;28;20113;-63
2021/12/25 00:13:31;;;;;;;45.30;34.72;;;13.60;91.10;;;;;;5092951;28;20027;-63
2021/12/25 00:15:57;;;;;;;50.53;35.30;;;13.60;91.00;;;;;;5092712;28;20032;-64
2021/12/25 00:18:22;;;;;;;46.78;34.10;;;13.60;91.10;;;;;;5093317;28;20027;-63
2021/12/25 00:20:49;;;;;;;42.92;35.28;;;13.70;91.10;;;;;;5092797;28;20032;-62
2021/12/25 00:23:15;;;;;;;46.67;33.22;;;13.70;91.10;;;;;;5092986;28;20035;-63
2021/12/25 00:25:46;;;;;;;44.15;34.50;;;13.60;91.10;;;;;;5092933;28;20110;-63
2021/12/25 00:30:46;;;;;;;47.03;32.78;;;13.70;91.00;;;;;;5095143;28;20126;-63
2021/12/25 00:33:33;;;;;;;46.05;34.28;;;13.60;91.00;;;;;;5097252;28;20020;-63
2021/12/25 00:35:59;;;;;;;46.83;32.95;;;13.60;91.00;;;;;;5096638;28;20024;-64
2021/12/25 00:38:25;;;;;;;44.85;34.40;;;13.60;91.10;;;;;;5097109;28;20107;-63
2021/12/25 00:40:50;;;;;;;45.22;33.80;;;13.50;91.10;;;;;;5096856;28;20031;-62
2021/12/25 00:43:16;;;;;;;44.05;33.72;;;13.50;91.10;;;;;;5096977;28;20055;-65
2021/12/25 00:45:41;;;;;;;42.80;33.15;;;13.50;91.10;;;;;;5097182;28;20032;-63
2021/12/25 00:48:07;;;;;;;42.95;32.67;;;13.50;91.10;;;;;;5096672;28;20016;-63
2021/12/25 00:50:33;;;;;;;42.17;32.80;;;13.60;91.10;;;;;;5096956;28;20160;-63
2021/12/25 00:52:58;;;;;;;42.78;33.63;;;13.50;91.20;;;;;;5096716;28;20020;-63
2021/12/25 00:55:24;;;;;;;40.85;31.50;;;13.40;91.20;;;;;;5096809;28;20530;-64
2021/12/25 00:57:50;;;;;;;40.97;30.92;;;13.50;91.20;;;;;;5096822;28;20024;-63
2021/12/25 01:00:16;;;;;;;42.78;31.83;;;13.40;91.20;;;;;;5096631;28;20036;-64
2021/12/25 01:02:44;;;;;;;38.35;30.40;;;13.40;91.20;;;;;;5096069;28;20020;-64
2021/12/25 01:05:11;;;;;;;39.60;31.55;;;13.50;91.30;;;;;;5090982;28;20034;-62
2021/12/25 01:07:37;;;;;;;40.08;30.77;;;13.40;91.30;;;;;;5096293;28;20016;-64
2021/12/25 01:10:07;;;;;;;40.10;31.48;;;13.40;91.20;;;;;;5091673;28;20494;-63
2021/12/25 01:12:47;;;;;;;40.42;31.85;;;13.40;91.30;;;;;;5078901;28;20424;-64
2021/12/25 01:15:15;;;;;;;33.33;28.80;;;13.40;91.30;;;;;;5080597;28;20034;-61
2021/12/25 01:18:06;;;;;;;39.17;30.95;;;13.40;91.40;;;;;;5086889;28;20099;-63
2021/12/25 01:36:36;;;;;;;36.47;29.00;;;13.30;91.60;;;;;;5075509;28;20032;-60
2021/12/25 01:39:15;;;;;;;34.72;28.58;;;13.30;91.60;;;;;;5074138;28;20028;-64
2021/12/25 01:42:00;;;;;;;34.22;27.02;;;13.30;91.70;;;;;;5074853;28;20028;-63
2021/12/25 01:49:55;;;;;;;29.92;24.52;;;13.30;91.70;;;;;;5075425;28;20036;-61
2021/12/25 01:52:28;;;;;;;32.08;25.13;;;13.20;91.70;;;;;;5075128;28;20025;-63
2021/12/25 01:54:54;;;;;;;31.65;25.63;;;13.30;91.70;;;;;;5075308;28;20024;-64
2021/12/25 01:57:20;;;;;;;34.28;26.77;;;13.30;91.70;;;;;;5075206;28;20017;-60
2021/12/25 01:59:47;;;;;;;30.20;24.90;;;13.30;91.70;;;;;;5073866;28;20024;-61
2021/12/25 02:02:14;;;;;;;32.25;26.52;;;13.20;91.90;;;;;;5074836;28;20043;-61
2021/12/25 02:04:40;;;;;;;30.52;26.55;;;13.20;91.90;;;;;;5075101;28;20035;-60
2021/12/25 02:07:05;;;;;;;31.40;25.90;;;13.30;91.90;;;;;;5076201;28;20733;-63
2021/12/25 02:09:31;;;;;;;30.30;25.73;;;13.20;92.00;;;;;;5082513;28;20113;-60
2021/12/25 02:11:57;;;;;;;29.67;25.60;;;13.20;92.00;;;;;;5078963;28;20377;-60
2021/12/25 02:14:22;;;;;;;32.88;25.75;;;13.20;92.00;;;;;;5079177;28;20492;-60
2021/12/25 02:16:54;;;;;;;31.00;25.63;;;13.20;92.00;;;;;;5079312;28;20028;-61
2021/12/25 02:19:33;;;;;;;31.92;24.75;;;13.20;92.10;;;;;;5079387;28;20063;-59
2021/12/25 02:22:01;;;;;;;27.77;22.35;;;13.20;92.10;;;;;;5085154;28;20027;-60
2021/12/25 02:24:27;;;;;;;29.33;24.67;;;13.20;92.10;;;;;;5076014;28;20074;-60
2021/12/25 02:26:53;;;;;;;28.88;24.90;;;13.30;92.00;;;;;;5078603;28;20048;-64
2021/12/25 02:29:18;;;;;;;28.75;24.13;;;13.30;92.20;;;;;;5074271;28;20067;-62
2021/12/25 02:31:44;;;;;;;29.73;25.05;;;13.20;92.00;;;;;;5074350;28;20024;-60
2021/12/25 02:34:09;;;;;;;26.65;23.02;;;13.30;92.00;;;;;;5074053;28;20442;-62
2021/12/25 02:36:35;;;;;;;29.42;25.02;;;13.20;92.00;;;;;;5074284;28;20115;-64
2021/12/25 02:39:01;;;;;;;28.35;24.25;;;13.20;92.10;;;;;;5074033;28;20024;-61
2021/12/25 02:41:26;;;;;;;25.77;20.83;;;13.20;92.10;;;;;;5074304;28;20048;-63
2021/12/25 02:43:52;;;;;;;24.20;18.92;;;13.10;92.20;;;;;;5073918;28;20524;-63
2021/12/25 02:46:18;;;;;;;20.80;16.92;;;13.10;92.10;;;;;;5073613;28;20028;-61
2021/12/25 02:48:43;;;;;;;16.90;14.50;;;13.10;92.00;;;;;;5074209;28;20048;-60
2021/12/25 02:51:11;;;;;;;14.45;12.95;;;13.10;92.00;;;;;;5074100;28;20359;-59
2021/12/25 02:53:38;;;;;;;13.70;11.73;;;13.10;92.10;;;;;;5073031;28;20017;-64
2021/12/25 02:56:05;;;;;;;11.32;9.15;;;13.10;92.10;;;;;;5073815;28;20029;-60
2021/12/25 02:58:30;;;;;;;10.52;9.15;;;13.00;92.00;;;;;;5074028;28;20454;-61
2021/12/25 03:01:14;;;;;;;11.10;8.95;;;13.00;92.10;;;;;;5073541;28;20111;-64
2021/12/25 03:03:40;;;;;;;7.82;6.95;;;13.00;92.10;;;;;;5073783;28;20023;-61
2021/12/25 03:06:08;;;;;;;7.55;6.53;;;13.00;91.90;;;;;;5072456;28;20020;-60
2021/12/25 03:08:34;;;;;;;5.85;5.25;;;13.00;91.80;;;;;;5073901;28;20017;-59
2021/12/25 03:11:03;;;;;;;5.40;4.78;;;13.00;91.80;;;;;;5073579;28;20028;-60
2021/12/25 03:13:42;;;;;;;4.40;4.00;;;13.00;91.70;;;;;;5073386;28;20044;-59
2021/12/25 03:16:07;;;;;;;6.18;4.28;;;12.90;91.70;;;;;;5073691;28;20025;-60
2021/12/25 03:18:41;;;;;;;4.25;3.85;;;12.90;91.60;;;;;;5073616;28;20035;-59
2021/12/25 03:21:07;;;;;;;4.40;4.00;;;12.90;91.40;;;;;;5073414;28;20016;-61
2021/12/25 03:23:35;;;;;;;3.88;3.45;;;12.80;91.40;;;;;;5073526;28;20484;-61
2021/12/25 03:26:03;;;;;;;5.70;3.83;;;12.80;91.30;;;;;;5073611;28;20036;-61
2021/12/25 03:28:32;;;;;;;4.43;4.00;;;12.60;91.30;;;;;;5073366;28;20100;-61
2021/12/25 03:31:01;;;;;;;5.68;3.60;;;12.60;91.40;;;;;;5073497;28;20454;-64
2021/12/25 03:33:28;;;;;;;4.70;4.20;;;12.70;91.20;;;;;;5073272;28;20043;-61
2021/12/25 03:35:54;;;;;;;4.82;3.78;;;12.60;91.20;;;;;;5073237;28;20017;-64
2021/12/25 03:38:20;;;;;;;4.47;4.07;;;12.60;91.00;;;;;;5073510;28;20031;-62
2021/12/25 03:40:50;;;;;;;4.68;4.20;;;12.70;90.80;;;;;;5073519;28;20459;-62
2021/12/25 03:43:16;;;;;;;5.35;4.20;;;12.70;90.80;;;;;;5071472;28;20093;-64
2021/12/25 03:45:42;;;;;;;4.72;4.32;;;12.60;90.70;;;;;;5073224;28;20032;-61
2021/12/25 03:48:29;;;;;;;4.22;3.85;;;12.60;90.80;;;;;;5073249;28;20051;-64
2021/12/25 03:59:04;;;;;;;5.78;5.20;;;12.40;90.60;;;;;;5073092;28;20090;-64
2021/12/25 04:04:10;;;;;;;6.00;5.40;;;12.40;90.80;;;;;;5072780;28;20045;-61
2021/12/25 04:06:46;;;;;;;5.32;4.82;;;12.40;90.70;;;;;;5072926;28;20025;-60
2021/12/25 04:09:25;;;;;;;5.25;4.70;;;12.40;90.70;;;;;;5072950;28;20529;-62
2021/12/25 04:11:52;;;;;;;5.38;4.88;;;12.40;90.80;;;;;;5072709;28;20070;-60
2021/12/25 04:14:17;;;;;;;5.45;4.95;;;12.40;90.70;;;;;;5081448;28;20123;-60
2021/12/25 04:16:43;;;;;;;5.85;4.78;;;12.40;90.70;;;;;;5080463;28;20075;-60
2021/12/25 04:19:09;;;;;;;6.10;5.50;;;12.50;90.80;;;;;;5092215;28;20020;-60
2021/12/25 04:21:36;;;;;;;6.88;6.03;;;12.40;90.60;;;;;;5092000;28;20024;-64
2021/12/25 04:24:02;;;;;;;6.75;5.95;;;12.40;90.50;;;;;;5092762;28;20488;-63
2021/12/25 04:26:28;;;;;;;7.78;6.97;;;12.40;90.60;;;;;;5091868;28;20024;-62
2021/12/25 04:31:32;;;;;;;8.00;7.30;;;12.30;90.50;;;;;;5092768;28;20024;-64
2021/12/25 05:03:54;;;;;;;13.52;12.23;;;12.10;90.80;;;;;;5092479;28;20511;-64
2021/12/25 05:06:22;;;;;;;15.97;14.27;;;12.10;90.80;;;;;;5092835;28;20130;-60
2021/12/25 05:08:52;;;;;;;16.52;14.88;;;12.10;90.80;;;;;;5092582;28;20486;-63
2021/12/25 05:11:18;;;;;;;16.33;14.63;;;12.10;90.60;;;;;;5092454;28;20013;-64
2021/12/25 05:13:45;;;;;;;16.25;14.55;;;11.90;90.80;;;;;;5092391;28;20032;-64
2021/12/25 05:16:11;;;;;;;18.02;16.23;;;12.00;90.80;;;;;;5094022;28;20024;-61
2021/12/25 05:18:37;;;;;;;16.85;15.15;;;11.90;90.60;;;;;;5096152;28;20027;-61
2021/12/25 05:21:03;;;;;;;17.95;16.15;;;12.00;90.80;;;;;;5096214;28;20051;-64
2021/12/25 05:23:28;;;;;;;16.98;15.30;;;12.00;90.80;;;;;;5095725;28;20035;-64
2021/12/25 05:25:54;;;;;;;17.38;15.57;;;12.00;90.70;;;;;;5095981;28;20069;-64
2021/12/25 05:28:25;;;;;;;17.23;15.45;;;12.00;90.70;;;;;;5096114;28;20066;-64
2021/12/25 05:30:55;;;;;;;17.15;15.45;;;12.00;90.80;;;;;;5096336;28;20095;-64
2021/12/25 05:33:21;;;;;;;16.95;15.27;;;12.00;90.90;;;;;;5096037;28;20023;-64
2021/12/25 05:35:47;;;;;;;16.25;14.63;;;12.00;90.80;;;;;;5095580;28;20178;-65
2021/12/25 05:38:14;;;;;;;18.05;16.25;;;12.00;90.80;;;;;;5095629;28;20024;-63
2021/12/25 05:40:45;;;;;;;17.85;16.00;;;12.00;90.80;;;;;;5095903;28;20028;-63
2021/12/25 05:43:12;;;;;;;16.80;15.10;;;12.00;90.70;;;;;;5095823;28;20035;-62
2021/12/25 05:45:38;;;;;;;16.92;15.27;;;11.90;90.60;;;;;;5095682;28;20035;-64
2021/12/25 05:48:04;;;;;;;17.10;15.32;;;12.00;90.50;;;;;;5095490;28;20019;-64
2021/12/25 05:50:30;;;;;;;16.83;15.10;;;11.90;90.40;;;;;;5095643;28;20020;-64
2021/12/25 05:52:56;;;;;;;18.10;15.95;;;11.90;90.30;;;;;;5095313;28;20016;-63
2021/12/25 05:55:23;;;;;;;16.00;14.40;;;11.60;90.60;;;;;;5095393;28;20043;-64
2021/12/25 05:57:49;;;;;;;16.75;15.05;;;11.70;90.50;;;;;;5095432;28;20016;-64
2021/12/25 06:00:15;;;;;;;15.55;14.02;;;11.70;90.40;;;;;;5094045;28;20032;-60
2021/12/25 06:02:40;;;;;;;16.08;14.38;;;11.60;90.50;;;;;;5091990;28;20484;-64
2021/12/25 06:05:06;;;;;;;16.58;14.88;;;11.60;90.40;;;;;;5094776;28;20032;-61
2021/12/25 06:07:32;;;;;;;17.33;15.45;;;11.50;90.40;;;;;;5094582;28;20117;-61
2021/12/25 06:09:58;;;;;;;17.48;15.63;;;11.50;90.50;;;;;;5095071;28;20138;-63
2021/12/25 06:12:24;;;;;;;17.50;15.73;;;11.60;90.70;;;;;;5094948;28;20059;-63
2021/12/25 06:14:52;;;;;;;17.00;15.20;;;11.60;90.60;;;;;;5094788;28;20494;-62
2021/12/25 06:17:18;;;;;;;16.40;14.80;;;11.60;90.60;;;;;;5095116;28;20103;-59
2021/12/25 06:19:43;;;;;;;16.65;14.95;;;11.60;90.60;;;;;;5094861;28;20531;-63
2021/12/25 06:22:09;;;;;;;15.85;14.35;;;11.60;90.70;;;;;;5094732;28;20477;-59
2021/12/25 06:24:35;;;;;;;16.00;14.32;;;11.60;90.60;;;;;;5094691;28;20040;-63
2021/12/25 06:27:01;;;;;;;14.50;13.10;;;11.60;90.60;;;;;;5095094;28;20055;-61
2021/12/25 06:29:26;;;;;;;13.38;12.07;;;11.60;90.40;;;;;;5094832;28;20020;-60
2021/12/25 06:31:52;;;;;;;12.20;10.90;;;11.50;90.40;;;;;;5094635;28;20024;-60
2021/12/25 06:34:19;;;;;;;11.15;10.05;;;11.50;90.10;;;;;;5094739;28;20028;-61
2021/12/25 06:36:44;;;;;;;10.18;9.27;;;11.30;90.00;;;;;;5094553;28;20078;-63
2021/12/25 06:39:15;;;;;;;10.45;9.35;;;11.30;90.00;;;;;;5094567;28;20028;-60
2021/12/25 06:41:42;;;;;;;11.32;10.05;;;11.20;89.80;;;;;;5094744;28;20025;-62
2021/12/25 06:44:08;;;;;;;10.52;9.52;;;11.20;89.80;;;;;;5094325;28;20048;-61
2021/12/25 06:46:34;;;;;;;10.80;9.80;;;11.20;89.90;;;;;;5094416;28;20024;-60
2021/12/25 06:48:59;;;;;;;11.18;10.18;;;11.20;90.00;;;;;;5094410;28;20032;-62
2021/12/25 06:51:25;;;;;;;10.52;9.52;;;11.30;90.00;;;;;;5094203;28;20026;-62
2021/12/25 06:53:50;;;;;;;11.45;10.35;;;11.30;90.00;;;;;;5094077;28;20024;-64
2021/12/25 06:56:17;;;;;;;10.82;9.80;;;11.30;89.80;;;;;;5094389;28;20043;-64
2021/12/25 06:58:43;;;;;;;9.77;8.85;;;11.30;89.80;;;;;;5094287;28;20031;-61
2021/12/25 07:01:09;;;;;;;9.27;8.40;;;11.30;89.80;;;;;;5094100;28;20462;-62
2021/12/25 07:03:34;;;;;;;8.15;7.45;;;11.30;89.80;;;;;;5093905;28;20024;-59
2021/12/25 07:06:00;;;;;;;8.05;7.28;;;11.30;89.70;;;;;;5093819;28;20061;-59
2021/12/25 07:08:26;;;;;;;8.07;7.38;;;11.30;89.40;;;;;;5094249;28;20089;-61
2021/12/25 07:10:51;;;;;;;8.27;7.57;;;11.20;88.70;;;;;;5092810;28;20054;-61
2021/12/25 07:13:18;;;;;;;9.43;8.63;;;11.10;88.70;;;;;;5092402;28;20031;-60
2021/12/25 07:15:45;;;;;;;8.70;7.97;;;11.10;88.60;;;;;;5093758;28;20028;-60
2021/12/25 07:18:11;;;;;;;7.95;7.25;;;11.10;88.20;;;;;;5094102;28;20028;-61
2021/12/25 07:20:37;;;;;;;8.52;7.82;;;10.90;88.00;;;;;;5093634;28;20128;-60
2021/12/25 07:23:03;;;;;;;8.13;7.43;;;10.80;87.50;;;;;;5093880;28;20465;-60
2021/12/25 07:25:29;;;;;;;8.27;7.57;;;10.60;88.00;;;;;;5093484;28;20125;-62
2021/12/25 07:27:55;;;;;;;9.75;8.85;;;10.80;88.30;;;;;;5093934;28;20531;-64
2021/12/25 07:30:21;;;;;;;8.30;7.60;;;10.70;88.00;;;;;;5092271;28;20219;-64
2021/12/25 07:32:47;;;;;;;8.25;7.55;;;10.70;88.80;;;;;;5093828;28;20024;-62
2021/12/25 07:35:12;;;;;;;8.65;7.75;;;10.70;88.80;;;;;;5093207;28;20028;-61
2021/12/25 07:37:38;;;;;;;8.40;7.70;;;10.80;88.70;;;;;;5093458;28;20020;-63
2021/12/25 07:40:05;;;;;;;7.60;7.00;;;10.80;88.00;;;;;;5093064;28;20031;-64
2021/12/25 07:42:31;;;;;;;7.97;7.28;;;10.80;88.00;;;;;;5093484;28;20024;-64
2021/12/25 07:45:03;;;;;;;7.68;6.97;;;10.80;87.70;;;;;;5093176;28;20039;-60
2021/12/25 07:47:31;;;;;;;7.55;6.85;;;10.70;87.90;;;;;;5093441;28;20018;-59
2021/12/25 07:49:58;;;;;;;7.53;6.82;;;10.80;87.80;;;;;;5093213;28;20028;-60
2021/12/25 07:52:24;;;;;;;7.88;6.78;;;10.80;87.80;;;;;;5093212;28;20019;-60
2021/12/25 07:54:49;;;;;;;8.95;8.15;;;10.80;87.50;;;;;;5093351;28;20510;-64
2021/12/25 07:57:15;;;;;;;9.88;8.98;;;10.70;87.10;;;;;;5093096;28;20017;-61
2021/12/25 07:59:41;;;;;;;9.73;8.93;;;10.70;86.80;;;;;;5093319;28;20389;-59
2021/12/25 08:02:07;;;;;;;9.48;8.68;;;10.50;87.00;;;;;;5083700;28;20020;-59
2021/12/25 08:04:33;;;;;;;10.30;9.40;;;10.50;86.50;;;;;;5078768;28;20473;-60
2021/12/25 08:06:59;;;;;;;10.20;9.40;;;10.40;87.00;;;;;;5081459;28;20036;-61
2021/12/25 08:09:31;;;;;;;10.27;9.45;;;10.50;86.40;;;;;;5093109;28;20020;-64
2021/12/25 08:11:58;;;;;;;9.60;8.80;;;10.40;86.40;;;;;;5088969;28;20393;-63
2021/12/25 08:14:25;;;;;;;10.45;9.55;;;10.50;86.60;;;;;;5084735;28;20064;-62
2021/12/25 08:16:59;;;;;;;10.70;9.77;;;10.40;86.20;;;;;;5091636;28;20447;-61
2021/12/25 08:19:25;;;;;;;10.05;9.25;;;10.40;86.30;;;;;;5093090;28;20038;-62
2021/12/25 08:21:51;;;;;;;9.68;8.80;;;10.30;86.40;;;;;;5076508;28;20103;-59
2021/12/25 08:24:18;;;;;;;10.48;9.57;;;10.40;86.40;;;;;;5093083;28;20043;-64
2021/12/25 08:26:45;;;;;;;9.88;9.07;;;10.40;86.10;;;;;;5085702;28;20075;-60
2021/12/25 08:29:11;;;;;;;10.00;9.13;;;10.40;86.20;;;;;;5072560;28;20104;-61
2021/12/25 08:31:37;;;;;;;10.73;9.82;;;10.30;86.20;;;;;;5072801;28;20048;-61
2021/12/25 08:34:03;;;;;;;11.25;10.35;;;10.30;86.60;;;;;;5072371;28;20493;-63
2021/12/25 08:36:29;;;;;;;10.65;9.75;;;10.30;86.20;;;;;;5085378;28;20028;-63
2021/12/25 08:38:55;;;;;;;11.45;10.55;;;10.30;86.40;;;;;;5080162;28;20025;-64
2021/12/25 08:41:25;;;;;;;10.23;9.32;;;10.30;86.60;;;;;;5084227;28;20024;-60
2021/12/25 08:43:56;;;;;;;10.07;9.18;;;10.30;86.70;;;;;;5070696;28;20032;-63
2021/12/25 08:46:42;;;;;;;10.85;9.95;;;10.30;87.10;;;;;;5072226;28;20029;-61
2021/12/25 08:49:10;;;;;;;9.75;8.95;;;10.30;86.20;;;;;;5072697;28;20017;-61
2021/12/25 08:51:36;;;;;;;10.38;9.38;;;10.20;86.50;;;;;;5074112;28;20098;-63
2021/12/25 08:54:02;;;;;;;10.27;9.48;;;9.90;85.20;;;;;;5076177;28;20083;-60
2021/12/25 08:56:27;;;;;;;11.55;10.55;;;9.90;86.10;;;;;;5076184;28;20024;-60
2021/12/25 08:58:53;;;;;;;11.02;10.13;;;9.80;85.90;;;;;;5076100;28;20021;-60
2021/12/25 09:01:19;;;;;;;11.38;10.45;;;9.80;86.00;;;;;;5076031;28;20512;-63
2021/12/25 09:03:44;;;;;;;12.20;11.18;;;9.40;86.80;;;;;;5076127;28;20125;-60
2021/12/25 09:06:10;;;;;;;12.23;11.23;;;9.40;87.40;;;;;;5074913;28;20024;-62
2021/12/25 09:08:35;;;;;;;12.88;11.57;;;9.50;87.50;;;;;;5076055;28;20032;-62
2021/12/25 09:11:02;;;;;;;13.23;12.13;;;9.30;87.70;;;;;;5075996;28;20427;-61
2021/12/25 09:13:27;;;;;;;12.80;11.70;;;9.50;87.80;;;;;;5075792;28;20116;-62
2021/12/25 09:15:53;;;;;;;13.10;12.00;;;9.50;87.70;;;;;;5074321;28;20115;-62
2021/12/25 09:18:19;;;;;;;12.98;11.88;;;9.60;87.30;;;;;;5075830;28;20024;-63
2021/12/25 09:20:45;;;;;;;12.23;11.23;;;9.40;87.60;;;;;;5075819;28;20016;-63
2021/12/25 09:23:11;;;;;;;12.85;11.73;;;9.40;87.80;;;;;;5074210;28;20034;-63
2021/12/25 09:25:36;;;;;;;13.77;12.57;;;9.40;87.90;;;;;;5075837;28;20037;-62
2021/12/25 09:28:02;;;;;;;14.43;13.18;;;9.50;87.70;;;;;;5075574;28;20067;-62
2021/12/25 09:30:28;;;;;;;14.13;12.88;;;9.60;86.90;;;;;;5075478;28;20031;-62
2021/12/25 09:32:54;;;;;;;14.93;13.63;;;9.60;87.10;;;;;;5075638;28;20020;-62
2021/12/25 09:35:20;;;;;;;15.30;13.90;;;9.60;87.30;;;;;;5075690;28;20146;-62
2021/12/25 09:37:45;;;;;;;14.10;12.85;;;9.50;87.40;;;;;;5075616;28;20020;-62
2021/12/25 09:40:12;;;;;;;13.95;12.75;;;9.30;87.50;;;;;;5075640;28;20031;-60
2021/12/25 09:42:40;;;;;;;14.25;13.02;;;9.00;88.20;;;;;;5074039;28;20031;-61
2021/12/25 09:45:07;;;;;;;13.60;12.20;;;9.20;88.60;;;;;;5074949;28;20040;-60
2021/12/25 09:47:32;;;;;;;13.35;12.15;;;9.40;87.70;;;;;;5075388;28;20039;-62
2021/12/25 09:49:58;;;;;;;13.07;11.93;;;9.40;87.20;;;;;;5075520;28;20028;-60
2021/12/25 09:52:23;;;;;;;13.52;12.32;;;9.40;87.00;;;;;;5076264;28;20129;-61
2021/12/25 09:54:49;;;;;;;12.73;11.63;;;9.40;87.30;;;;;;5078070;28;20054;-61
2021/12/25 09:57:14;;;;;;;13.05;11.85;;;9.60;86.90;;;;;;5091355;28;20064;-61
2021/12/25 09:59:41;;;;;;;12.48;11.27;;;9.70;86.30;;;;;;5095097;28;20028;-60
2021/12/25 10:02:13;;;;;;;12.43;11.32;;;9.50;86.00;;;;;;5090228;28;20386;-60
2021/12/25 10:04:45;;;;;;;12.40;11.30;;;9.30;86.90;;;;;;5094441;28;20043;-61
2021/12/25 10:07:19;;;;;;;;;;;9.30;87.50;;;;;;5094056;28;20020;-61
2021/12/25 10:10:03;;;;;;;11.77;10.75;;;9.40;87.00;;;;;;5088591;28;20327;-62
2021/12/25 10:12:34;;;;;;;11.85;10.80;;;9.60;86.90;;;;;;5079477;28;20024;-61
2021/12/25 10:14:59;;;;;;;11.93;10.85;;;9.70;86.60;;;;;;5080035;28;20020;-58
2021/12/25 10:17:28;;;;;;;11.73;10.63;;;9.80;86.30;;;;;;5085828;28;20031;-61
2021/12/25 10:20:12;;;;;;;10.98;9.88;;;9.80;86.10;;;;;;5082940;28;20474;-62
2021/12/25 10:23:14;;;;;;;10.77;9.77;;;9.80;86.20;;;;;;5076886;28;20020;-60
2021/12/25 10:25:55;;;;;;;11.05;10.02;;;9.80;84.70;;;;;;5067498;28;20045;-61
2021/12/25 10:28:31;;;;;;;10.93;9.93;;;9.60;85.20;;;;;;5074111;28;20079;-60
2021/12/25 10:31:09;;;;;;;10.73;9.75;;;9.60;85.30;;;;;;5073684;28;20044;-60
2021/12/25 10:33:50;;;;;;;10.52;9.52;;;9.70;85.30;;;;;;5090096;28;20024;-59
2021/12/25 10:36:27;;;;;;;11.23;10.10;;;9.70;84.70;;;;;;5073773;28;20036;-60
2021/12/25 10:39:17;;;;;;;11.68;10.57;;;9.60;85.20;;;;;;5073269;28;20486;-60
2021/12/25 10:42:08;;;;;;;10.23;9.32;;;9.50;85.10;;;;;;5094358;28;20125;-59
2021/12/25 10:44:37;;;;;;;10.23;9.32;;;9.50;86.30;;;;;;5092812;28;20039;-59
2021/12/25 10:47:04;;;;;;;11.10;10.10;;;9.70;85.50;;;;;;5093091;28;20020;-60
2021/12/25 10:49:38;;;;;;;10.40;9.50;;;9.70;85.40;;;;;;5086703;28;20028;-60
2021/12/25 10:52:26;;;;;;;9.52;8.68;;;9.80;85.70;;;;;;5083118;28;20024;-60
2021/12/25 10:54:58;;;;;;;10.90;9.90;;;9.90;86.10;;;;;;5080342;28;20048;-59
2021/12/25 10:57:48;;;;;;;10.93;9.93;;;9.90;85.30;;;;;;5073445;28;20107;-60
2021/12/25 11:00:35;;;;;;;12.40;11.30;;;9.90;85.20;;;;;;5084078;28;20462;-61
2021/12/25 11:03:05;;;;;;;14.25;12.65;;;9.90;85.90;;;;;;5071465;28;20482;-60
2021/12/25 11:05:33;;;;;;;15.75;14.15;;;9.90;86.10;;;;;;5084682;28;20177;-59
2021/12/25 11:08:11;;;;;;;12.80;11.70;;;10.00;85.30;;;;;;5073857;28;20152;-60
2021/12/25 11:10:57;;;;;;;12.40;11.13;;;9.80;84.00;;;;;;5097358;28;20493;-60
2021/12/25 11:13:44;;;;;;;12.23;10.90;;;9.80;84.90;;;;;;5084286;28;20049;-59
2021/12/25 11:16:32;;;;;;;12.75;11.55;;;9.90;85.50;;;;;;5091134;28;20036;-60
2021/12/25 11:19:06;;;;;;;13.48;11.27;;;9.90;85.10;;;;;;5073052;28;20099;-64
2021/12/25 11:21:35;;;;;;;12.30;10.85;;;9.90;85.10;;;;;;5072815;28;20029;-60
2021/12/25 11:24:14;;;;;;;11.90;10.80;;;9.90;84.80;;;;;;5076866;28;20032;-59
2021/12/25 11:26:42;;;;;;;11.65;10.65;;;9.90;83.80;;;;;;5079568;28;20047;-60
2021/12/25 11:29:11;;;;;;;12.15;10.95;;;9.80;83.80;;;;;;5073056;28;20028;-60
2021/12/25 11:31:37;;;;;;;12.57;11.48;;;9.80;83.40;;;;;;5082884;28;20074;-60
2021/12/25 11:34:03;;;;;;;13.23;11.93;;;9.80;83.50;;;;;;5091647;28;20028;-60
2021/12/25 11:36:29;;;;;;;12.55;11.45;;;9.80;83.80;;;;;;5093542;28;20482;-61
2021/12/25 11:38:55;;;;;;;12.70;11.57;;;9.80;83.80;;;;;;5093452;28;20070;-60
2021/12/25 11:41:27;;;;;;;12.85;11.65;;;9.80;83.60;;;;;;5092924;28;20473;-61
2021/12/25 11:43:54;;;;;;;12.73;11.60;;;9.70;83.60;;;;;;5076165;28;20021;-61
2021/12/25 11:46:23;;;;;;;12.50;11.30;;;9.70;83.60;;;;;;5073147;28;20540;-61
2021/12/25 11:49:11;;;;;;;11.55;10.45;;;9.50;83.70;;;;;;5072040;28;20499;-60
2021/12/25 11:51:39;;;;;;;12.55;11.45;;;9.40;83.30;;;;;;5071720;28;20021;-60
2021/12/25 11:59:48;;;;;;;13.70;12.23;;;9.20;84.20;;;;;;5086466;28;20024;-60
2021/12/25 12:02:36;;;;;;;13.02;11.77;;;8.90;84.70;;;;;;5072792;28;20077;-60
2021/12/25 12:05:33;;;;;;;12.07;10.98;;;8.90;85.40;;;;;;5072996;28;20051;-61
2021/12/25 12:08:05;;;;;;;12.23;11.02;;;8.70;85.60;;;;;;5073028;28;20042;-61
2021/12/25 12:11:00;;;;;;;12.07;11.02;;;8.70;85.60;;;;;;5072694;28;20048;-60
2021/12/25 12:13:27;;;;;;;13.68;12.38;;;8.70;85.50;;;;;;5067901;28;20490;-61
2021/12/25 12:16:01;;;;;;;13.00;11.80;;;8.70;86.00;;;;;;5088591;28;20040;-61
2021/12/25 12:18:28;;;;;;;12.40;11.20;;;9.00;85.50;;;;;;5080481;28;20024;-61
2021/12/25 12:21:05;;;;;;;13.48;12.07;;;9.20;84.60;;;;;;5083532;28;20042;-60
2021/12/25 12:26:14;;;;;;;12.80;11.50;;;9.30;83.70;;;;;;5096202;28;20040;-60
2021/12/25 12:28:52;;;;;;;12.57;11.35;;;9.30;83.70;;;;;;5097220;28;20028;-61
2021/12/25 12:31:37;;;;;;;11.88;10.77;;;9.40;83.70;;;;;;5096910;28;20055;-61
2021/12/25 12:34:31;;;;;;;11.48;10.38;;;9.50;83.80;;;;;;5097210;28;20031;-61
2021/12/25 12:37:14;;;;;;;13.93;12.32;;;9.50;83.70;;;;;;5078272;28;20055;-61
2021/12/25 12:40:07;;;;;;;12.48;11.38;;;9.60;83.90;;;;;;5092014;28;20027;-61
2021/12/25 12:45:16;;;;;;;13.30;12.10;;;9.70;83.80;;;;;;5081993;28;20040;-60
2021/12/25 12:48:09;;;;;;;13.15;11.98;;;9.50;82.70;;;;;;5083573;28;20024;-61
2021/12/25 12:50:37;;;;;;;13.98;12.68;;;9.50;82.60;;;;;;5079403;28;20462;-60
2021/12/25 12:53:07;;;;;;;14.45;13.05;;;9.30;81.90;;;;;;5096890;28;20032;-61
2021/12/25 12:55:35;;;;;;;15.70;14.18;;;9.30;83.20;;;;;;5091111;28;20031;-61
2021/12/25 12:58:11;;;;;;;15.95;14.25;;;9.30;82.30;;;;;;5074652;28;20116;-61
2021/12/25 13:00:39;;;;;;;15.20;13.60;;;9.10;82.60;;;;;;5076170;28;20100;-61
2021/12/25 13:03:05;;;;;;;14.02;12.75;;;9.20;83.20;;;;;;5075612;28;20021;-61
2021/12/25 13:05:44;;;;;;;15.05;13.63;;;9.30;83.00;;;;;;5076008;28;20548;-61
2021/12/25 13:08:25;;;;;;;16.02;14.38;;;9.40;83.00;;;;;;5075828;28;20025;-60
2021/12/25 13:10:52;;;;;;;13.68;12.00;;;9.50;82.40;;;;;;5081431;28;20019;-61
2021/12/25 13:13:29;;;;;;;14.05;12.70;;;9.30;81.80;;;;;;5085071;28;20110;-60
2021/12/25 13:15:59;;;;;;;13.30;11.90;;;9.40;82.20;;;;;;5075777;28;20112;-61
2021/12/25 13:18:37;;;;;;;13.30;11.98;;;9.50;82.10;;;;;;5075766;28;20074;-61
2021/12/25 13:21:08;;;;;;;12.95;11.80;;;9.50;81.90;;;;;;5076119;28;20024;-61
2021/12/25 13:23:49;;;;;;;13.85;12.48;;;9.60;82.30;;;;;;5075247;28;20094;-60
2021/12/25 13:26:15;;;;;;;13.02;11.88;;;9.60;81.40;;;;;;5075110;28;20086;-60
2021/12/25 13:28:43;;;;;;;10.93;9.82;;;9.60;81.50;;;;;;5081089;28;20027;-60
2021/12/25 13:31:18;;;;;;;12.63;11.48;;;9.50;82.20;;;;;;5091350;28;20027;-60
2021/12/25 13:34:11;;;;;;;12.27;11.15;;;9.60;82.00;;;;;;5095665;28;20018;-60
2021/12/25 13:36:38;;;;;;;12.32;11.13;;;9.60;81.70;;;;;;5094958;28;20028;-60
2021/12/25 13:39:11;;;;;;;12.23;11.13;;;9.50;81.50;;;;;;5084789;28;20085;-60
2021/12/25 13:41:44;;;;;;;12.27;11.07;;;9.50;82.10;;;;;;5089960;28;20024;-61
2021/12/25 13:44:17;;;;;;;11.85;10.75;;;9.40;81.50;;;;;;5094003;28;20048;-61
2021/12/25 13:46:49;;;;;;;12.65;11.45;;;9.40;82.20;;;;;;5095457;28;20043;-61
2021/12/25 13:49:38;;;;;;;13.07;11.55;;;9.10;81.50;;;;;;5095359;28;20535;-61
2021/12/25 13:52:05;;;;;;;11.68;10.63;;;9.20;81.90;;;;;;5077282;28;20036;-60
2021/12/25 13:54:32;;;;;;;11.95;10.77;;;9.20;82.10;;;;;;5075047;28;20040;-61
2021/12/25 13:56:59;;;;;;;12.30;11.00;;;9.30;82.30;;;;;;5074678;28;20083;-61
2021/12/25 13:59:25;;;;;;;11.77;10.68;;;9.30;81.70;;;;;;5074897;28;20020;-61
2021/12/25 14:02:00;;;;;;;12.70;11.50;;;9.40;82.10;;;;;;5078659;28;20016;-61
2021/12/25 14:04:27;;;;;;;11.70;10.65;;;9.20;81.50;;;;;;5074415;28;20482;-61
2021/12/25 14:06:52;;;;;;;11.70;10.60;;;9.10;81.20;;;;;;5079706;28;20111;-65